createdAt,value
2022-11-22T00:00:55.871Z,48.00
2022-11-22T00:03:23.846Z,47.93
2022-11-22T00:05:53.258Z,51.37
2022-11-22T00:08:21.414Z,48.67
2022-11-22T00:10:50.199Z,47.57
2022-11-22T00:13:18.362Z,47.93
2022-11-22T00:15:46.520Z,46.57
2022-11-22T00:18:14.477Z,46.13
2022-11-22T00:20:42.464Z,47.67
2022-11-22T00:23:11.821Z,48.37
2022-11-22T00:25:39.755Z,53.17
2022-11-22T00:28:07.730Z,49.50
2022-11-22T00:30:35.888Z,48.60
2022-11-22T00:33:04.063Z,47.63
2022-11-22T00:35:32.168Z,43.73
2022-11-22T00:38:00.126Z,46.83
2022-11-22T00:40:29.472Z,45.50
2022-11-22T00:42:57.436Z,42.27
2022-11-22T00:45:25.429Z,43.70
2022-11-22T00:47:53.400Z,43.30
2022-11-22T00:50:21.366Z,45.07
2022-11-22T00:52:49.329Z,43.00
2022-11-22T00:55:17.402Z,44.77
2022-11-22T00:57:46.749Z,43.53
2022-11-22T01:00:15.317Z,43.37
2022-11-22T01:02:43.350Z,42.23
2022-11-22T01:05:11.448Z,40.60
2022-11-22T01:07:39.492Z,41.03
2022-11-22T01:10:08.300Z,45.53
2022-11-22T01:12:36.740Z,39.57
2022-11-22T01:15:07.436Z,41.40
2022-11-22T01:17:35.403Z,41.33
2022-11-22T01:20:03.724Z,44.57
2022-11-22T01:22:31.763Z,45.23
2022-11-22T01:24:59.751Z,42.67
2022-11-22T01:27:27.704Z,45.60
2022-11-22T01:29:55.662Z,45.83
2022-11-22T01:32:25.057Z,41.07
2022-11-22T01:34:53.050Z,42.13
2022-11-22T01:37:21.079Z,41.13
2022-11-22T01:39:49.044Z,44.10
2022-11-22T01:42:17.017Z,48.80
2022-11-22T01:44:45.511Z,45.47
2022-11-22T01:47:15.395Z,44.40
2022-11-22T01:49:48.589Z,46.83
2022-11-22T01:52:20.199Z,44.83
2022-11-22T01:54:54.044Z,44.87
2022-11-22T01:57:27.719Z,42.20
2022-11-22T02:00:02.517Z,43.23
2022-11-22T02:02:30.610Z,47.23
2022-11-22T02:05:03.577Z,44.60
2022-11-22T02:07:36.779Z,45.03
2022-11-22T02:10:05.502Z,43.80
2022-11-22T02:12:36.443Z,45.87
2022-11-22T02:15:05.220Z,45.30
2022-11-22T02:17:33.189Z,45.70
2022-11-22T02:20:02.706Z,45.60
2022-11-22T02:22:37.257Z,44.80
2022-11-22T02:25:10.145Z,45.53
2022-11-22T02:27:39.687Z,46.93
2022-11-22T02:30:08.755Z,46.03
2022-11-22T02:32:36.756Z,45.70
2022-11-22T02:35:18.624Z,49.80
2022-11-22T02:37:47.026Z,47.57
2022-11-22T02:40:17.275Z,50.50
2022-11-22T02:42:51.773Z,50.77
2022-11-22T02:45:19.798Z,53.90
2022-11-22T02:47:47.793Z,50.23
2022-11-22T02:50:16.071Z,49.03
2022-11-22T02:52:44.102Z,52.13
2022-11-22T02:55:12.253Z,50.07
2022-11-22T02:57:40.210Z,52.20
2022-11-22T03:00:11.424Z,50.80
2022-11-22T03:02:39.350Z,46.10
2022-11-22T03:05:07.606Z,45.87
2022-11-22T03:07:35.644Z,46.50
2022-11-22T03:10:03.623Z,49.53
2022-11-22T03:12:31.623Z,48.63
2022-11-22T03:14:59.612Z,47.87
2022-11-22T03:17:28.927Z,45.27
2022-11-22T03:19:56.925Z,44.33
2022-11-22T03:22:24.886Z,42.87
2022-11-22T03:24:52.875Z,46.83
2022-11-22T03:27:20.859Z,43.87
2022-11-22T03:29:48.803Z,45.60
2022-11-22T03:32:16.783Z,44.03
2022-11-22T03:34:46.124Z,41.50
2022-11-22T03:37:14.118Z,49.30
2022-11-22T03:39:42.084Z,48.17
2022-11-22T03:42:10.064Z,49.40
2022-11-22T03:44:38.016Z,51.37
2022-11-22T03:47:06.081Z,52.30
2022-11-22T03:49:34.052Z,53.57
2022-11-22T03:52:03.382Z,56.23
2022-11-22T03:54:31.338Z,53.40
2022-11-22T03:56:59.337Z,53.33
2022-11-22T03:59:27.398Z,47.00
2022-11-22T04:01:55.732Z,43.93
2022-11-22T04:04:24.061Z,45.77
2022-11-22T04:06:52.056Z,44.20
2022-11-22T04:09:21.489Z,42.67
2022-11-22T04:11:49.575Z,43.23
2022-11-22T04:14:35.167Z,45.90
2022-11-22T04:17:03.140Z,46.87
2022-11-22T04:19:31.168Z,45.20
2022-11-22T04:21:58.352Z,45.37
2022-11-22T04:24:45.331Z,43.73
2022-11-22T04:27:13.320Z,45.30
2022-11-22T04:29:41.298Z,43.37
2022-11-22T04:32:27.820Z,47.73
2022-11-22T04:34:55.852Z,45.03
2022-11-22T04:37:23.840Z,46.77
2022-11-22T04:39:53.160Z,45.20
2022-11-22T04:42:38.679Z,43.07
2022-11-22T04:45:08.072Z,46.53
2022-11-22T04:47:53.456Z,42.87
2022-11-22T04:50:38.781Z,44.23
2022-11-22T04:53:06.776Z,41.33
2022-11-22T04:55:36.124Z,43.30
2022-11-22T04:58:04.198Z,41.43
2022-11-22T05:00:32.989Z,42.03
2022-11-22T05:03:01.347Z,39.60
2022-11-22T05:05:29.509Z,41.43
2022-11-22T05:07:59.012Z,38.93
2022-11-22T05:10:27.392Z,38.67
2022-11-22T05:12:57.274Z,38.20
2022-11-22T05:15:25.388Z,37.57
2022-11-22T05:17:53.415Z,38.33
2022-11-22T05:20:21.425Z,36.73
2022-11-22T05:23:07.037Z,39.23
2022-11-22T05:25:35.018Z,38.93
2022-11-22T05:28:04.564Z,37.37
2022-11-22T05:30:32.554Z,36.10
2022-11-22T05:33:00.511Z,34.97
2022-11-22T05:35:31.260Z,37.77
2022-11-22T05:37:59.553Z,37.47
2022-11-22T05:40:27.954Z,36.50
2022-11-22T05:42:55.915Z,37.00
2022-11-22T05:45:25.242Z,39.73
2022-11-22T05:47:53.203Z,36.77
2022-11-22T05:50:21.185Z,36.43
2022-11-22T05:52:49.192Z,37.13
2022-11-22T05:55:17.351Z,36.07
2022-11-22T05:57:45.303Z,35.37
2022-11-22T06:00:13.988Z,35.80
2022-11-22T06:02:43.334Z,36.87
2022-11-22T06:05:11.409Z,34.90
2022-11-22T06:07:39.530Z,36.50
2022-11-22T06:10:08.345Z,36.83
2022-11-22T06:12:36.881Z,36.53
2022-11-22T06:15:07.326Z,36.13
2022-11-22T06:17:35.274Z,37.13
2022-11-22T06:20:06.644Z,36.63
2022-11-22T06:22:34.961Z,33.83
2022-11-22T06:25:03.020Z,34.77
2022-11-22T06:27:31.392Z,34.97
2022-11-22T06:29:59.465Z,36.50
2022-11-22T06:32:27.428Z,35.17
2022-11-22T06:34:55.416Z,34.87
2022-11-22T06:37:24.787Z,35.47
2022-11-22T06:39:52.991Z,35.47
2022-11-22T06:42:20.975Z,35.73
2022-11-22T06:44:48.971Z,35.30
2022-11-22T06:47:17.573Z,36.77
2022-11-22T06:49:46.191Z,33.47
2022-11-22T06:52:14.142Z,34.50
2022-11-22T06:54:43.508Z,33.20
2022-11-22T06:57:14.629Z,37.37
2022-11-22T06:59:43.169Z,34.93
2022-11-22T07:02:12.929Z,38.03
2022-11-22T07:05:02.198Z,38.20
2022-11-22T07:07:28.977Z,41.97
2022-11-22T07:09:58.340Z,43.07
2022-11-22T07:12:26.890Z,41.30
2022-11-22T07:14:54.862Z,41.77
2022-11-22T07:17:22.884Z,42.00
2022-11-22T07:19:50.899Z,43.70
2022-11-22T07:22:18.854Z,44.67
2022-11-22T07:24:46.807Z,42.53
2022-11-22T07:27:16.260Z,41.50
2022-11-22T07:29:44.279Z,41.10
2022-11-22T07:32:12.352Z,39.50
2022-11-22T07:34:40.287Z,36.27
2022-11-22T07:37:09.366Z,35.10
2022-11-22T07:39:37.574Z,36.83
2022-11-22T07:42:05.659Z,35.67
2022-11-22T07:44:35.037Z,35.87
2022-11-22T07:47:03.039Z,34.67
2022-11-22T07:49:31.248Z,35.07
2022-11-22T07:52:00.048Z,38.30
2022-11-22T07:54:28.036Z,39.40
2022-11-22T07:56:56.024Z,39.07
2022-11-22T07:59:24.038Z,40.83
2022-11-22T08:01:53.417Z,39.27
2022-11-22T08:04:21.412Z,39.80
2022-11-22T08:06:49.414Z,41.10
2022-11-22T08:09:17.392Z,39.57
2022-11-22T08:11:45.368Z,41.40
2022-11-22T08:14:13.461Z,41.97
2022-11-22T08:16:41.444Z,38.83
2022-11-22T08:19:15.913Z,41.50
2022-11-22T08:21:44.060Z,39.47
2022-11-22T08:24:12.324Z,44.30
2022-11-22T08:26:40.402Z,40.17
2022-11-22T08:29:14.097Z,40.70
2022-11-22T08:31:42.688Z,40.03
2022-11-22T08:34:12.108Z,39.57
2022-11-22T08:36:40.094Z,40.10
2022-11-22T08:39:08.239Z,40.13
2022-11-22T08:41:36.343Z,41.70
2022-11-22T08:44:04.827Z,39.80
2022-11-22T08:46:32.885Z,39.40
2022-11-22T08:49:03.807Z,37.47
2022-11-22T08:51:33.838Z,40.07
2022-11-22T08:54:01.793Z,38.13
2022-11-22T08:56:29.882Z,40.43
2022-11-22T08:58:57.956Z,38.97
2022-11-22T09:01:26.047Z,41.60
2022-11-22T09:03:54.162Z,40.03
2022-11-22T09:12:00.418Z,41.17
2022-11-22T09:14:28.450Z,38.63
2022-11-22T09:16:58.472Z,37.83
2022-11-22T09:19:26.498Z,38.97
2022-11-22T09:21:54.493Z,39.10
2022-11-22T09:24:23.853Z,39.17
2022-11-22T09:26:51.872Z,39.03
2022-11-22T09:29:19.881Z,39.10
2022-11-22T09:31:47.888Z,38.80
2022-11-22T09:34:15.878Z,39.17
2022-11-22T09:36:43.981Z,35.37
2022-11-22T09:39:12.502Z,32.97
2022-11-22T09:42:10.668Z,31.40
2022-11-22T09:44:48.108Z,30.33
2022-11-22T09:47:26.315Z,30.60
2022-11-22T09:50:06.363Z,30.47
2022-11-22T09:52:51.261Z,31.73
2022-11-22T09:55:24.672Z,29.53
2022-11-22T09:58:07.225Z,29.43
2022-11-22T10:00:36.521Z,27.90
2022-11-22T10:03:09.813Z,29.10
2022-11-22T10:05:48.903Z,26.40
2022-11-22T10:08:28.874Z,25.57
2022-11-22T10:10:59.619Z,21.97
2022-11-22T10:13:35.240Z,22.37
2022-11-22T10:16:11.736Z,20.40
2022-11-22T10:18:44.691Z,20.33
2022-11-22T10:21:14.227Z,19.50
2022-11-22T10:23:43.161Z,18.77
2022-11-22T10:26:22.134Z,18.07
2022-11-22T10:29:04.779Z,16.70
2022-11-22T10:31:40.335Z,17.10
2022-11-22T10:34:16.378Z,15.93
2022-11-22T10:36:51.132Z,17.67
2022-11-22T10:39:32.961Z,15.70
2022-11-22T10:42:25.417Z,16.27
2022-11-22T10:45:04.662Z,15.33
2022-11-22T10:47:47.670Z,14.70
2022-11-22T10:50:21.542Z,13.37
2022-11-22T10:52:59.889Z,11.90
2022-11-22T10:55:45.819Z,11.60
2022-11-22T10:58:21.324Z,12.00
2022-11-22T11:00:59.825Z,10.80
2022-11-22T11:03:31.517Z,11.37
2022-11-22T11:06:29.657Z,10.33
2022-11-22T11:11:48.127Z,10.30
2022-11-22T11:14:26.728Z,10.23
2022-11-22T11:16:56.449Z,10.00
2022-11-22T11:19:25.962Z,9.90
2022-11-22T11:22:00.420Z,9.20
2022-11-22T11:24:31.332Z,9.37
2022-11-22T11:27:01.577Z,9.97
2022-11-22T11:29:43.926Z,9.67
2022-11-22T11:32:15.335Z,9.57
2022-11-22T11:34:51.915Z,9.37
2022-11-22T11:37:26.773Z,9.57
2022-11-22T11:39:54.893Z,9.17
2022-11-22T11:42:29.059Z,9.93
2022-11-22T11:45:21.917Z,9.63
2022-11-22T11:47:51.294Z,9.30
2022-11-22T11:50:24.206Z,9.37
2022-11-22T11:52:55.324Z,9.83
2022-11-22T11:55:23.619Z,9.80
2022-11-22T11:57:53.553Z,9.40
2022-11-22T12:00:26.826Z,10.10
2022-11-22T12:03:01.548Z,10.10
2022-11-22T12:05:31.600Z,11.10
2022-11-22T12:08:01.168Z,9.80
2022-11-22T12:10:35.101Z,10.27
2022-11-22T12:13:09.084Z,10.03
2022-11-22T12:15:45.006Z,10.20
2022-11-22T12:18:31.791Z,10.70
2022-11-22T12:21:08.866Z,10.80
2022-11-22T12:23:50.615Z,11.27
2022-11-22T12:26:19.543Z,10.47
2022-11-22T12:28:48.411Z,10.73
2022-11-22T12:31:26.481Z,10.57
2022-11-22T12:33:59.698Z,11.03
2022-11-22T12:36:34.275Z,10.27
2022-11-22T12:39:05.281Z,10.30
2022-11-22T12:41:36.136Z,10.03
2022-11-22T12:44:06.304Z,9.87
2022-11-22T12:46:40.153Z,10.43
2022-11-22T12:49:16.505Z,10.83
2022-11-22T12:51:48.758Z,10.23
2022-11-22T12:54:21.044Z,11.23
2022-11-22T12:56:53.061Z,11.67
2022-11-22T12:59:29.341Z,10.47
2022-11-22T13:02:05.968Z,11.37
2022-11-22T13:04:45.311Z,10.60
2022-11-22T13:07:20.006Z,10.93
2022-11-22T13:09:54.720Z,10.37
2022-11-22T13:12:28.224Z,10.83
2022-11-22T13:14:57.167Z,10.90
2022-11-22T13:17:27.202Z,10.37
2022-11-22T13:20:04.268Z,11.00
2022-11-22T13:22:41.772Z,10.37
2022-11-22T13:25:33.649Z,11.10
2022-11-22T13:28:06.611Z,10.87
2022-11-22T13:30:37.157Z,11.67
2022-11-22T13:33:05.236Z,12.00
2022-11-22T13:35:36.308Z,12.80
2022-11-22T13:38:07.078Z,14.17
2022-11-22T13:40:37.618Z,17.90
2022-11-22T13:43:52.592Z,14.27
2022-11-22T13:46:55.327Z,12.33
2022-11-22T13:49:38.935Z,13.30
2022-11-22T13:52:35.088Z,13.33
2022-11-22T13:55:28.313Z,14.53
2022-11-22T13:57:56.499Z,16.00
2022-11-22T14:00:48.436Z,12.93
2022-11-22T14:03:35.007Z,13.53
2022-11-22T14:06:26.867Z,13.57
2022-11-22T14:09:26.393Z,14.27
2022-11-22T14:12:07.577Z,12.67
2022-11-22T14:14:42.041Z,13.80
2022-11-22T14:17:22.943Z,13.67
2022-11-22T14:20:03.554Z,14.07
2022-11-22T14:22:44.698Z,13.77
2022-11-22T14:25:40.502Z,13.60
2022-11-22T14:28:18.974Z,15.03
2022-11-22T14:30:54.174Z,15.70
2022-11-22T14:33:24.305Z,14.67
2022-11-22T14:36:15.115Z,14.80
2022-11-22T14:38:43.537Z,15.03
2022-11-22T14:41:41.623Z,16.20
2022-11-22T14:44:15.526Z,16.70
2022-11-22T14:46:53.853Z,15.70
2022-11-22T14:49:31.791Z,15.43
2022-11-22T14:52:00.528Z,17.27
2022-11-22T14:54:31.792Z,18.23
2022-11-22T14:57:06.614Z,17.70
2022-11-22T14:59:58.010Z,18.50
2022-11-22T15:03:10.844Z,19.87
2022-11-22T15:09:14.150Z,21.43
2022-11-22T15:09:19.189Z,20.67
2022-11-22T15:12:14.346Z,22.73
2022-11-22T15:57:27.982Z,28.90
2022-11-22T15:59:56.669Z,28.17
2022-11-22T16:02:29.795Z,27.93
2022-11-22T16:06:04.526Z,29.33
2022-11-22T16:07:50.458Z,30.67
2022-11-22T16:10:22.773Z,31.13
2022-11-22T16:12:51.904Z,30.90
2022-11-22T16:15:29.759Z,31.27
2022-11-22T16:18:08.013Z,32.20
2022-11-22T16:20:37.121Z,32.37
2022-11-22T16:23:26.508Z,32.03
2022-11-22T16:25:58.399Z,31.83
2022-11-22T16:28:32.604Z,32.27
2022-11-22T16:31:03.771Z,31.73
2022-11-22T16:33:33.701Z,31.40
2022-11-22T16:36:02.985Z,31.00
2022-11-22T16:38:31.265Z,32.00
2022-11-22T16:41:00.257Z,30.47
2022-11-22T16:43:35.273Z,30.90
2022-11-22T16:46:03.682Z,31.33
2022-11-22T16:48:33.732Z,29.63
2022-11-22T16:51:05.437Z,30.40
2022-11-22T16:53:41.231Z,28.70
2022-11-22T16:56:10.008Z,30.57
2022-11-22T16:58:38.008Z,31.00
2022-11-22T17:01:06.333Z,29.93
2022-11-22T17:03:39.400Z,27.83
2022-11-22T17:06:07.790Z,28.90
2022-11-22T17:08:35.760Z,30.50
2022-11-22T17:11:03.816Z,31.23
2022-11-22T17:13:31.841Z,31.17
2022-11-22T17:15:59.854Z,31.47
2022-11-22T17:18:27.895Z,30.87
2022-11-22T17:20:57.360Z,31.67
2022-11-22T17:23:30.283Z,31.60
2022-11-22T17:25:58.407Z,32.60
2022-11-22T17:28:26.763Z,31.47
2022-11-22T17:30:55.203Z,32.20
2022-11-22T17:33:24.935Z,31.37
2022-11-22T17:35:53.568Z,32.07
2022-11-22T17:38:23.152Z,32.50
2022-11-22T17:40:51.284Z,27.30
2022-11-22T17:43:19.350Z,28.23
2022-11-22T17:45:47.413Z,27.90
2022-11-22T17:48:17.364Z,26.03
2022-11-22T17:50:45.870Z,25.00
2022-11-22T17:53:13.869Z,24.10
2022-11-22T17:56:09.114Z,22.53
2022-11-22T17:58:31.824Z,22.47
2022-11-22T18:01:07.297Z,23.97
2022-11-22T18:03:35.926Z,21.77
2022-11-22T18:06:04.287Z,23.20
2022-11-22T18:08:33.185Z,21.97
2022-11-22T18:11:03.459Z,23.17
2022-11-22T18:13:33.021Z,22.63
2022-11-22T18:16:03.698Z,23.67
2022-11-22T18:21:20.173Z,23.67
2022-11-22T18:23:48.172Z,24.03
2022-11-22T18:31:54.604Z,23.83
2022-11-22T18:34:23.318Z,24.53
2022-11-22T18:37:07.220Z,24.60
2022-11-22T18:42:26.274Z,23.70
2022-11-22T18:44:54.254Z,25.80
2022-11-22T18:47:22.240Z,25.60
2022-11-22T18:49:50.804Z,25.43
2022-11-22T18:52:18.754Z,26.53
2022-11-22T18:54:46.733Z,26.10
2022-11-22T18:57:14.726Z,26.73
2022-11-22T18:59:44.077Z,27.93
2022-11-22T19:02:12.174Z,29.00
2022-11-22T19:04:40.110Z,30.57
2022-11-22T19:07:08.120Z,29.73
2022-11-22T19:09:36.073Z,29.20
2022-11-22T19:12:04.219Z,29.10
2022-11-22T19:14:32.353Z,28.30
2022-11-22T19:17:01.859Z,27.57
2022-11-22T19:19:32.209Z,26.80
2022-11-22T19:22:00.268Z,27.67
2022-11-22T19:24:28.752Z,25.70
2022-11-22T19:26:57.195Z,27.80
2022-11-22T19:29:25.241Z,26.63
2022-11-22T19:31:53.199Z,28.67
2022-11-22T19:34:22.523Z,28.23
2022-11-22T19:36:50.491Z,28.07
2022-11-22T19:39:19.922Z,25.93
2022-11-22T19:41:47.877Z,28.50
2022-11-22T19:44:15.826Z,27.40
2022-11-22T19:46:43.788Z,28.27
2022-11-22T19:49:11.809Z,28.67
2022-11-22T19:51:41.164Z,29.53
2022-11-22T19:54:09.210Z,29.63
2022-11-22T19:56:38.945Z,29.00
2022-11-22T19:59:10.322Z,27.70
2022-11-22T20:01:39.662Z,31.07
2022-11-22T20:04:08.294Z,30.83
2022-11-22T20:06:37.288Z,31.03
2022-11-22T20:09:09.235Z,31.43
2022-11-22T20:11:37.650Z,30.90
2022-11-22T20:14:05.639Z,31.33
2022-11-22T20:16:34.754Z,31.60
2022-11-22T20:19:04.571Z,32.00
2022-11-22T20:21:33.744Z,30.97
2022-11-22T20:24:02.447Z,30.97
2022-11-22T20:26:33.045Z,29.47
2022-11-22T20:29:03.392Z,29.53
2022-11-22T20:31:32.943Z,31.70
2022-11-22T20:34:02.396Z,30.63
2022-11-22T20:36:32.514Z,29.97
2022-11-22T20:39:05.381Z,31.07
2022-11-22T20:41:38.247Z,30.30
2022-11-22T20:44:06.543Z,28.30
2022-11-22T20:46:37.263Z,26.87
2022-11-22T20:49:05.282Z,29.17
2022-11-22T20:51:35.903Z,28.60
2022-11-22T20:54:03.920Z,29.57
2022-11-22T20:56:31.943Z,27.23
2022-11-22T20:59:01.365Z,27.50
2022-11-22T21:01:31.555Z,27.53
2022-11-22T21:03:59.589Z,27.20
2022-11-22T21:06:28.859Z,25.90
2022-11-22T21:08:57.231Z,25.83
2022-11-22T21:11:26.677Z,24.97
2022-11-22T21:13:56.139Z,24.17
2022-11-22T21:16:26.542Z,24.03
2022-11-22T21:18:56.341Z,24.80
2022-11-22T21:21:25.816Z,24.07
2022-11-22T21:23:55.814Z,24.60
2022-11-22T21:26:25.407Z,23.80
2022-11-22T21:28:54.016Z,23.20
2022-11-22T21:31:23.369Z,23.73
2022-11-22T21:33:53.654Z,23.33
2022-11-22T21:36:22.397Z,25.63
2022-11-22T21:38:50.493Z,26.43
2022-11-22T21:44:07.953Z,26.77
2022-11-22T21:46:35.892Z,27.23
2022-11-22T21:49:05.256Z,26.03
2022-11-22T21:51:33.216Z,26.23
2022-11-22T21:54:02.321Z,26.60
2022-11-22T21:56:31.563Z,25.13
2022-11-22T21:58:59.883Z,26.40
2022-11-22T22:01:28.424Z,27.33
2022-11-22T22:03:56.461Z,27.13
2022-11-22T22:06:26.117Z,27.47
2022-11-22T22:08:54.201Z,27.00
2022-11-22T22:11:22.309Z,30.03
2022-11-22T22:13:50.408Z,30.60
2022-11-22T22:16:22.870Z,30.60
2022-11-22T22:18:51.533Z,32.27
2022-11-22T22:21:21.173Z,34.00
2022-11-22T22:23:50.554Z,37.10
2022-11-22T22:26:18.984Z,35.63
2022-11-22T22:28:47.481Z,37.27
2022-11-22T22:31:17.544Z,35.87
2022-11-22T22:33:46.573Z,37.87
2022-11-22T22:36:14.622Z,34.97
2022-11-22T22:38:42.599Z,35.70
2022-11-22T22:41:14.373Z,35.77
2022-11-22T22:43:45.045Z,35.80
2022-11-22T22:46:15.204Z,37.03
2022-11-22T22:48:44.049Z,39.00
2022-11-22T22:51:14.261Z,36.83
2022-11-22T22:53:42.945Z,36.10
2022-11-22T22:56:13.815Z,38.87
2022-11-22T22:58:42.254Z,38.37
2022-11-22T23:01:13.794Z,39.20
2022-11-22T23:03:41.955Z,37.50
2022-11-22T23:06:11.965Z,34.53
2022-11-22T23:08:40.707Z,33.00
2022-11-22T23:11:12.760Z,32.10
2022-11-22T23:13:42.546Z,33.67
2022-11-22T23:16:12.177Z,35.77
2022-11-22T23:18:42.077Z,34.37
2022-11-22T23:21:13.008Z,32.63
2022-11-22T23:23:40.963Z,32.90
2022-11-22T23:26:11.030Z,31.13
2022-11-22T23:28:40.365Z,31.87
2022-11-22T23:31:10.144Z,33.53
2022-11-22T23:33:38.164Z,34.80
2022-11-22T23:36:08.316Z,38.97
2022-11-22T23:38:36.441Z,37.87
2022-11-22T23:41:04.747Z,38.80
2022-11-22T23:43:33.027Z,39.07
2022-11-22T23:46:02.367Z,37.83
2022-11-22T23:48:30.367Z,36.63
2022-11-22T23:51:03.729Z,35.43
2022-11-22T23:53:31.686Z,34.77
2022-11-22T23:56:05.958Z,33.57
2022-11-22T23:58:33.997Z,35.40
